sensor_id;sensor_type;location;lat;lon;timestamp;P1;durP1;ratioP1;P2;durP2;ratioP2
4794;SDS011;2411;47.060;15.064;2023-01-15T00:02:13;6.20;;;3.57;;
4794;SDS011;2411;47.060;15.064;2023-01-15T00:04:42;6.23;;;4.00;;
4794;SDS011;2411;47.060;15.064;2023-01-15T00:07:10;3.50;;;3.07;;
4794;SDS011;2411;47.060;15.064;2023-01-15T00:09:37;4.40;;;3.37;;
4794;SDS011;2411;47.060;15.064;2023-01-15T00:12:04;4.50;;;3.80;;
4794;SDS011;2411;47.060;15.064;2023-01-15T00:14:31;6.50;;;3.87;;
4794;SDS011;2411;47.060;15.064;2023-01-15T00:16:59;5.03;;;3.63;;
4794;SDS011;2411;47.060;15.064;2023-01-15T00:19:26;4.03;;;2.87;;
4794;SDS011;2411;47.060;15.064;2023-01-15T00:21:53;4.33;;;2.63;;
4794;SDS011;2411;47.060;15.064;2023-01-15T00:24:20;3.10;;;2.50;;
4794;SDS011;2411;47.060;15.064;2023-01-15T00:27:08;2.43;;;2.27;;
4794;SDS011;2411;47.060;15.064;2023-01-15T00:29:55;2.90;;;2.50;;
4794;SDS011;2411;47.060;15.064;2023-01-15T00:32:22;2.20;;;2.07;;
4794;SDS011;2411;47.060;15.064;2023-01-15T00:34:52;5.43;;;2.23;;
4794;SDS011;2411;47.060;15.064;2023-01-15T00:37:19;6.20;;;2.80;;
4794;SDS011;2411;47.060;15.064;2023-01-15T00:39:47;3.87;;;2.37;;
4794;SDS011;2411;47.060;15.064;2023-01-15T00:42:15;3.37;;;2.57;;
4794;SDS011;2411;47.060;15.064;2023-01-15T00:44:43;3.10;;;2.80;;
4794;SDS011;2411;47.060;15.064;2023-01-15T00:47:10;2.20;;;2.10;;
4794;SDS011;2411;47.060;15.064;2023-01-15T00:49:40;2.20;;;2.00;;
4794;SDS011;2411;47.060;15.064;2023-01-15T00:52:09;2.90;;;2.60;;
4794;SDS011;2411;47.060;15.064;2023-01-15T00:54:37;6.10;;;2.60;;
4794;SDS011;2411;47.060;15.064;2023-01-15T00:57:04;4.30;;;2.70;;
4794;SDS011;2411;47.060;15.064;2023-01-15T00:59:31;4.67;;;3.40;;
4794;SDS011;2411;47.060;15.064;2023-01-15T01:01:58;4.43;;;2.43;;
4794;SDS011;2411;47.060;15.064;2023-01-15T01:04:26;3.13;;;2.83;;
4794;SDS011;2411;47.060;15.064;2023-01-15T01:06:53;6.50;;;2.60;;
4794;SDS011;2411;47.060;15.064;2023-01-15T01:09:20;2.80;;;2.40;;
4794;SDS011;2411;47.060;15.064;2023-01-15T01:11:48;3.40;;;2.63;;
4794;SDS011;2411;47.060;15.064;2023-01-15T01:14:15;2.77;;;2.30;;
4794;SDS011;2411;47.060;15.064;2023-01-15T01:16:43;6.43;;;2.50;;
4794;SDS011;2411;47.060;15.064;2023-01-15T01:19:15;3.57;;;3.13;;
4794;SDS011;2411;47.060;15.064;2023-01-15T01:21:45;4.20;;;3.20;;
4794;SDS011;2411;47.060;15.064;2023-01-15T01:24:22;3.17;;;2.20;;
4794;SDS011;2411;47.060;15.064;2023-01-15T01:26:50;2.30;;;2.03;;
4794;SDS011;2411;47.060;15.064;2023-01-15T01:29:20;2.30;;;2.10;;
4794;SDS011;2411;47.060;15.064;2023-01-15T01:31:48;3.30;;;2.00;;
4794;SDS011;2411;47.060;15.064;2023-01-15T01:34:16;2.07;;;1.97;;
4794;SDS011;2411;47.060;15.064;2023-01-15T01:36:44;2.07;;;1.93;;
4794;SDS011;2411;47.060;15.064;2023-01-15T01:39:14;3.90;;;2.27;;
4794;SDS011;2411;47.060;15.064;2023-01-15T01:41:43;2.63;;;2.17;;
4794;SDS011;2411;47.060;15.064;2023-01-15T01:46:58;2.40;;;2.20;;
4794;SDS011;2411;47.060;15.064;2023-01-15T01:49:27;3.40;;;1.90;;
4794;SDS011;2411;47.060;15.064;2023-01-15T01:51:55;1.97;;;1.80;;
4794;SDS011;2411;47.060;15.064;2023-01-15T01:54:29;2.67;;;2.30;;
4794;SDS011;2411;47.060;15.064;2023-01-15T01:57:00;2.00;;;1.80;;
4794;SDS011;2411;47.060;15.064;2023-01-15T01:59:28;2.87;;;1.83;;
4794;SDS011;2411;47.060;15.064;2023-01-15T02:01:55;3.90;;;1.70;;
4794;SDS011;2411;47.060;15.064;2023-01-15T02:04:22;2.33;;;2.07;;
4794;SDS011;2411;47.060;15.064;2023-01-15T02:06:52;1.90;;;1.80;;
4794;SDS011;2411;47.060;15.064;2023-01-15T02:09:20;1.93;;;1.77;;
4794;SDS011;2411;47.060;15.064;2023-01-15T02:11:47;2.27;;;2.07;;
4794;SDS011;2411;47.060;15.064;2023-01-15T02:17:39;2.67;;;1.80;;
4794;SDS011;2411;47.060;15.064;2023-01-15T02:26:01;2.20;;;1.90;;
4794;SDS011;2411;47.060;15.064;2023-01-15T02:28:49;1.80;;;1.70;;
4794;SDS011;2411;47.060;15.064;2023-01-15T02:31:38;2.30;;;1.70;;
4794;SDS011;2411;47.060;15.064;2023-01-15T02:34:16;1.97;;;1.77;;
4794;SDS011;2411;47.060;15.064;2023-01-15T02:37:01;2.63;;;2.43;;
4794;SDS011;2411;47.060;15.064;2023-01-15T02:39:32;1.87;;;1.77;;
4794;SDS011;2411;47.060;15.064;2023-01-15T02:42:04;2.57;;;2.30;;
4794;SDS011;2411;47.060;15.064;2023-01-15T02:44:36;1.50;;;1.40;;
4794;SDS011;2411;47.060;15.064;2023-01-15T02:47:06;1.80;;;1.33;;
4794;SDS011;2411;47.060;15.064;2023-01-15T02:49:36;2.07;;;1.67;;
4794;SDS011;2411;47.060;15.064;2023-01-15T02:52:12;1.53;;;1.43;;
4794;SDS011;2411;47.060;15.064;2023-01-15T02:54:45;4.77;;;1.70;;
4794;SDS011;2411;47.060;15.064;2023-01-15T02:57:15;1.90;;;1.80;;
4794;SDS011;2411;47.060;15.064;2023-01-15T02:59:45;2.43;;;2.20;;
4794;SDS011;2411;47.060;15.064;2023-01-15T03:02:21;2.07;;;1.97;;
4794;SDS011;2411;47.060;15.064;2023-01-15T03:04:59;1.70;;;1.60;;
4794;SDS011;2411;47.060;15.064;2023-01-15T03:07:30;1.60;;;1.50;;
4794;SDS011;2411;47.060;15.064;2023-01-15T03:10:22;2.63;;;2.07;;
4794;SDS011;2411;47.060;15.064;2023-01-15T03:12:59;1.90;;;1.80;;
4794;SDS011;2411;47.060;15.064;2023-01-15T03:18:55;3.57;;;2.00;;
4794;SDS011;2411;47.060;15.064;2023-01-15T03:21:48;1.83;;;1.73;;
4794;SDS011;2411;47.060;15.064;2023-01-15T03:24:42;1.97;;;1.83;;
4794;SDS011;2411;47.060;15.064;2023-01-15T03:27:21;2.40;;;1.80;;
4794;SDS011;2411;47.060;15.064;2023-01-15T03:29:50;2.00;;;1.80;;
4794;SDS011;2411;47.060;15.064;2023-01-15T03:32:24;1.67;;;1.57;;
4794;SDS011;2411;47.060;15.064;2023-01-15T03:34:53;1.80;;;1.53;;
4794;SDS011;2411;47.060;15.064;2023-01-15T03:37:21;1.83;;;1.73;;
4794;SDS011;2411;47.060;15.064;2023-01-15T03:39:51;2.23;;;2.03;;
4794;SDS011;2411;47.060;15.064;2023-01-15T03:50:04;2.60;;;1.77;;
4794;SDS011;2411;47.060;15.064;2023-01-15T03:52:42;2.10;;;1.77;;
4794;SDS011;2411;47.060;15.064;2023-01-15T03:55:15;2.03;;;1.87;;
4794;SDS011;2411;47.060;15.064;2023-01-15T03:57:56;1.70;;;1.60;;
4794;SDS011;2411;47.060;15.064;2023-01-15T04:00:32;1.90;;;1.60;;
4794;SDS011;2411;47.060;15.064;2023-01-15T04:03:02;1.93;;;1.60;;
4794;SDS011;2411;47.060;15.064;2023-01-15T04:05:32;1.50;;;1.40;;
4794;SDS011;2411;47.060;15.064;2023-01-15T04:08:02;2.37;;;1.73;;
4794;SDS011;2411;47.060;15.064;2023-01-15T04:10:31;1.77;;;1.53;;
4794;SDS011;2411;47.060;15.064;2023-01-15T04:12:58;1.77;;;1.63;;
4794;SDS011;2411;47.060;15.064;2023-01-15T04:15:25;2.00;;;1.80;;
4794;SDS011;2411;47.060;15.064;2023-01-15T04:17:53;4.43;;;2.13;;
4794;SDS011;2411;47.060;15.064;2023-01-15T04:20:20;1.70;;;1.60;;
4794;SDS011;2411;47.060;15.064;2023-01-15T04:22:47;1.83;;;1.70;;
4794;SDS011;2411;47.060;15.064;2023-01-15T04:25:14;1.70;;;1.60;;
4794;SDS011;2411;47.060;15.064;2023-01-15T04:27:41;1.70;;;1.60;;
4794;SDS011;2411;47.060;15.064;2023-01-15T04:30:09;1.97;;;1.80;;
4794;SDS011;2411;47.060;15.064;2023-01-15T04:32:37;1.53;;;1.20;;
4794;SDS011;2411;47.060;15.064;2023-01-15T04:35:04;1.07;;;1.07;;
4794;SDS011;2411;47.060;15.064;2023-01-15T04:37:31;1.43;;;1.33;;
4794;SDS011;2411;47.060;15.064;2023-01-15T04:39:59;1.63;;;1.50;;
4794;SDS011;2411;47.060;15.064;2023-01-15T04:42:26;2.57;;;1.80;;
4794;SDS011;2411;47.060;15.064;2023-01-15T04:45:12;1.20;;;1.10;;
4794;SDS011;2411;47.060;15.064;2023-01-15T04:47:39;1.40;;;1.30;;
4794;SDS011;2411;47.060;15.064;2023-01-15T04:50:06;1.57;;;1.47;;
4794;SDS011;2411;47.060;15.064;2023-01-15T04:52:34;3.83;;;1.23;;
4794;SDS011;2411;47.060;15.064;2023-01-15T04:55:02;1.17;;;1.10;;
4794;SDS011;2411;47.060;15.064;2023-01-15T04:57:30;1.60;;;1.00;;
4794;SDS011;2411;47.060;15.064;2023-01-15T04:59:57;1.50;;;1.40;;
4794;SDS011;2411;47.060;15.064;2023-01-15T05:02:24;1.17;;;1.17;;
4794;SDS011;2411;47.060;15.064;2023-01-15T05:04:51;1.87;;;1.63;;
4794;SDS011;2411;47.060;15.064;2023-01-15T05:07:19;1.23;;;1.23;;
4794;SDS011;2411;47.060;15.064;2023-01-15T05:09:46;1.17;;;1.00;;
4794;SDS011;2411;47.060;15.064;2023-01-15T05:12:17;1.20;;;1.10;;
4794;SDS011;2411;47.060;15.064;2023-01-15T05:14:44;1.77;;;1.67;;
4794;SDS011;2411;47.060;15.064;2023-01-15T05:17:11;1.23;;;1.23;;
4794;SDS011;2411;47.060;15.064;2023-01-15T05:19:38;0.80;;;0.80;;
4794;SDS011;2411;47.060;15.064;2023-01-15T05:22:05;2.07;;;1.00;;
4794;SDS011;2411;47.060;15.064;2023-01-15T05:24:33;1.10;;;1.03;;
4794;SDS011;2411;47.060;15.064;2023-01-15T05:27:00;1.40;;;1.30;;
4794;SDS011;2411;47.060;15.064;2023-01-15T05:29:28;1.80;;;1.30;;
4794;SDS011;2411;47.060;15.064;2023-01-15T05:31:55;1.30;;;1.20;;
4794;SDS011;2411;47.060;15.064;2023-01-15T05:34:22;1.23;;;1.20;;
4794;SDS011;2411;47.060;15.064;2023-01-15T05:36:49;1.73;;;1.63;;
4794;SDS011;2411;47.060;15.064;2023-01-15T05:39:17;1.27;;;1.27;;
4794;SDS011;2411;47.060;15.064;2023-01-15T05:41:44;2.60;;;1.30;;
4794;SDS011;2411;47.060;15.064;2023-01-15T05:44:22;1.63;;;1.20;;
4794;SDS011;2411;47.060;15.064;2023-01-15T05:47:02;1.50;;;1.40;;
4794;SDS011;2411;47.060;15.064;2023-01-15T05:49:31;1.63;;;1.07;;
4794;SDS011;2411;47.060;15.064;2023-01-15T05:52:00;1.03;;;1.03;;
4794;SDS011;2411;47.060;15.064;2023-01-15T05:54:28;1.63;;;1.50;;
4794;SDS011;2411;47.060;15.064;2023-01-15T05:56:57;1.57;;;1.47;;
4794;SDS011;2411;47.060;15.064;2023-01-15T05:59:25;1.53;;;1.43;;
4794;SDS011;2411;47.060;15.064;2023-01-15T06:01:54;1.77;;;1.30;;
4794;SDS011;2411;47.060;15.064;2023-01-15T06:04:22;4.27;;;2.07;;
4794;SDS011;2411;47.060;15.064;2023-01-15T06:06:53;1.50;;;1.40;;
4794;SDS011;2411;47.060;15.064;2023-01-15T06:09:21;3.40;;;1.60;;
4794;SDS011;2411;47.060;15.064;2023-01-15T06:11:49;3.13;;;1.77;;
4794;SDS011;2411;47.060;15.064;2023-01-15T06:14:17;1.40;;;1.30;;
4794;SDS011;2411;47.060;15.064;2023-01-15T06:16:44;4.30;;;1.93;;
4794;SDS011;2411;47.060;15.064;2023-01-15T06:19:12;3.30;;;2.27;;
4794;SDS011;2411;47.060;15.064;2023-01-15T06:21:39;2.33;;;2.13;;
4794;SDS011;2411;47.060;15.064;2023-01-15T06:24:07;3.87;;;1.67;;
4794;SDS011;2411;47.060;15.064;2023-01-15T06:26:36;2.93;;;1.87;;
4794;SDS011;2411;47.060;15.064;2023-01-15T06:29:04;2.63;;;2.43;;
4794;SDS011;2411;47.060;15.064;2023-01-15T06:31:31;2.83;;;2.00;;
4794;SDS011;2411;47.060;15.064;2023-01-15T06:33:58;2.53;;;2.17;;
4794;SDS011;2411;47.060;15.064;2023-01-15T06:36:26;9.70;;;2.80;;
4794;SDS011;2411;47.060;15.064;2023-01-15T06:38:54;2.97;;;2.43;;
4794;SDS011;2411;47.060;15.064;2023-01-15T06:41:23;9.47;;;2.97;;
4794;SDS011;2411;47.060;15.064;2023-01-15T06:44:16;4.10;;;2.70;;
4794;SDS011;2411;47.060;15.064;2023-01-15T06:47:10;3.83;;;2.47;;
4794;SDS011;2411;47.060;15.064;2023-01-15T06:49:53;2.70;;;2.50;;
4794;SDS011;2411;47.060;15.064;2023-01-15T06:52:25;2.20;;;1.47;;
4794;SDS011;2411;47.060;15.064;2023-01-15T06:54:54;3.10;;;1.60;;
4794;SDS011;2411;47.060;15.064;2023-01-15T06:57:22;1.40;;;1.30;;
4794;SDS011;2411;47.060;15.064;2023-01-15T06:59:49;1.73;;;1.63;;
4794;SDS011;2411;47.060;15.064;2023-01-15T07:02:17;3.03;;;2.17;;
4794;SDS011;2411;47.060;15.064;2023-01-15T07:04:45;2.10;;;1.83;;
4794;SDS011;2411;47.060;15.064;2023-01-15T07:07:14;2.00;;;1.90;;
4794;SDS011;2411;47.060;15.064;2023-01-15T07:09:43;4.37;;;1.90;;
4794;SDS011;2411;47.060;15.064;2023-01-15T07:12:11;2.20;;;2.00;;
4794;SDS011;2411;47.060;15.064;2023-01-15T07:14:39;2.22;;;2.03;;
4794;SDS011;2411;47.060;15.064;2023-01-15T07:17:06;2.40;;;2.30;;
4794;SDS011;2411;47.060;15.064;2023-01-15T07:19:34;4.80;;;2.50;;
4794;SDS011;2411;47.060;15.064;2023-01-15T07:22:01;6.50;;;5.70;;
4794;SDS011;2411;47.060;15.064;2023-01-15T07:24:28;8.57;;;7.43;;
4794;SDS011;2411;47.060;15.064;2023-01-15T07:26:56;2.83;;;2.33;;
4794;SDS011;2411;47.060;15.064;2023-01-15T07:29:23;3.63;;;1.90;;
4794;SDS011;2411;47.060;15.064;2023-01-15T07:31:51;2.40;;;2.20;;
4794;SDS011;2411;47.060;15.064;2023-01-15T07:34:18;3.83;;;2.37;;
4794;SDS011;2411;47.060;15.064;2023-01-15T07:36:46;5.80;;;2.93;;
4794;SDS011;2411;47.060;15.064;2023-01-15T07:39:13;6.23;;;2.70;;
4794;SDS011;2411;47.060;15.064;2023-01-15T07:41:41;2.70;;;2.50;;
4794;SDS011;2411;47.060;15.064;2023-01-15T07:44:27;3.03;;;2.50;;
4794;SDS011;2411;47.060;15.064;2023-01-15T07:47:16;2.20;;;2.10;;
4794;SDS011;2411;47.060;15.064;2023-01-15T07:50:04;4.50;;;1.77;;
4794;SDS011;2411;47.060;15.064;2023-01-15T07:52:34;2.30;;;2.10;;
4794;SDS011;2411;47.060;15.064;2023-01-15T07:55:02;2.40;;;2.20;;
4794;SDS011;2411;47.060;15.064;2023-01-15T07:57:30;2.40;;;2.27;;
4794;SDS011;2411;47.060;15.064;2023-01-15T07:59:57;2.37;;;1.83;;
4794;SDS011;2411;47.060;15.064;2023-01-15T08:02:24;2.23;;;2.03;;
4794;SDS011;2411;47.060;15.064;2023-01-15T08:04:52;1.90;;;1.80;;
4794;SDS011;2411;47.060;15.064;2023-01-15T08:07:20;2.20;;;2.10;;
4794;SDS011;2411;47.060;15.064;2023-01-15T08:09:47;3.23;;;2.47;;
4794;SDS011;2411;47.060;15.064;2023-01-15T08:12:14;2.47;;;2.27;;
4794;SDS011;2411;47.060;15.064;2023-01-15T08:15:00;2.60;;;2.00;;
4794;SDS011;2411;47.060;15.064;2023-01-15T08:17:40;3.20;;;2.70;;
4794;SDS011;2411;47.060;15.064;2023-01-15T08:20:14;2.73;;;2.53;;
4794;SDS011;2411;47.060;15.064;2023-01-15T08:22:45;4.97;;;3.50;;
4794;SDS011;2411;47.060;15.064;2023-01-15T08:25:17;7.60;;;5.43;;
4794;SDS011;2411;47.060;15.064;2023-01-15T08:27:46;8.87;;;6.20;;
4794;SDS011;2411;47.060;15.064;2023-01-15T08:30:15;8.40;;;5.20;;
4794;SDS011;2411;47.060;15.064;2023-01-15T08:32:44;7.90;;;4.80;;
4794;SDS011;2411;47.060;15.064;2023-01-15T08:35:11;8.07;;;5.83;;
4794;SDS011;2411;47.060;15.064;2023-01-15T08:37:39;6.53;;;5.77;;
4794;SDS011;2411;47.060;15.064;2023-01-15T08:40:08;12.23;;;6.23;;
4794;SDS011;2411;47.060;15.064;2023-01-15T08:42:37;7.70;;;6.90;;
4794;SDS011;2411;47.060;15.064;2023-01-15T08:45:04;12.23;;;6.57;;
4794;SDS011;2411;47.060;15.064;2023-01-15T08:47:32;13.20;;;6.30;;
4794;SDS011;2411;47.060;15.064;2023-01-15T08:50:00;7.40;;;5.80;;
4794;SDS011;2411;47.060;15.064;2023-01-15T08:52:27;10.53;;;4.87;;
4794;SDS011;2411;47.060;15.064;2023-01-15T08:54:54;5.83;;;4.50;;
4794;SDS011;2411;47.060;15.064;2023-01-15T08:57:21;4.30;;;3.83;;
4794;SDS011;2411;47.060;15.064;2023-01-15T08:59:49;5.47;;;4.50;;
4794;SDS011;2411;47.060;15.064;2023-01-15T09:02:16;4.50;;;4.07;;
4794;SDS011;2411;47.060;15.064;2023-01-15T09:04:44;8.77;;;5.63;;
4794;SDS011;2411;47.060;15.064;2023-01-15T09:07:11;6.43;;;4.87;;
4794;SDS011;2411;47.060;15.064;2023-01-15T09:09:38;3.70;;;3.40;;
4794;SDS011;2411;47.060;15.064;2023-01-15T09:12:06;4.37;;;3.00;;
4794;SDS011;2411;47.060;15.064;2023-01-15T09:14:34;3.93;;;3.53;;
4794;SDS011;2411;47.060;15.064;2023-01-15T09:17:21;6.40;;;4.20;;
4794;SDS011;2411;47.060;15.064;2023-01-15T09:19:48;3.13;;;2.40;;
4794;SDS011;2411;47.060;15.064;2023-01-15T09:22:16;5.50;;;3.70;;
4794;SDS011;2411;47.060;15.064;2023-01-15T09:24:43;1.60;;;1.50;;
4794;SDS011;2411;47.060;15.064;2023-01-15T09:27:10;2.70;;;2.13;;
4794;SDS011;2411;47.060;15.064;2023-01-15T09:29:38;1.30;;;1.20;;
4794;SDS011;2411;47.060;15.064;2023-01-15T09:32:05;0.70;;;0.70;;
4794;SDS011;2411;47.060;15.064;2023-01-15T09:34:35;0.70;;;0.70;;
4794;SDS011;2411;47.060;15.064;2023-01-15T09:37:02;0.50;;;0.50;;
4794;SDS011;2411;47.060;15.064;2023-01-15T09:39:30;2.30;;;1.00;;
4794;SDS011;2411;47.060;15.064;2023-01-15T09:47:43;2.10;;;0.90;;
4794;SDS011;2411;47.060;15.064;2023-01-15T09:50:30;2.50;;;2.20;;
4794;SDS011;2411;47.060;15.064;2023-01-15T09:53:16;6.70;;;3.40;;
4794;SDS011;2411;47.060;15.064;2023-01-15T09:56:09;5.17;;;2.60;;
4794;SDS011;2411;47.060;15.064;2023-01-15T09:58:45;3.70;;;2.47;;
4794;SDS011;2411;47.060;15.064;2023-01-15T10:01:14;0.80;;;0.70;;
4794;SDS011;2411;47.060;15.064;2023-01-15T10:03:48;1.17;;;0.80;;
4794;SDS011;2411;47.060;15.064;2023-01-15T10:06:32;0.90;;;0.90;;
4794;SDS011;2411;47.060;15.064;2023-01-15T10:09:13;3.93;;;2.00;;
4794;SDS011;2411;47.060;15.064;2023-01-15T10:11:48;4.23;;;1.87;;
4794;SDS011;2411;47.060;15.064;2023-01-15T10:17:21;0.70;;;0.60;;
4794;SDS011;2411;47.060;15.064;2023-01-15T10:19:53;1.90;;;1.07;;
4794;SDS011;2411;47.060;15.064;2023-01-15T10:25:16;5.00;;;3.23;;
4794;SDS011;2411;47.060;15.064;2023-01-15T10:27:51;4.77;;;3.73;;
4794;SDS011;2411;47.060;15.064;2023-01-15T10:30:22;5.20;;;3.37;;
4794;SDS011;2411;47.060;15.064;2023-01-15T10:47:25;8.87;;;3.03;;
4794;SDS011;2411;47.060;15.064;2023-01-15T10:49:58;2.33;;;2.13;;
4794;SDS011;2411;47.060;15.064;2023-01-15T10:52:30;1.13;;;1.03;;
4794;SDS011;2411;47.060;15.064;2023-01-15T10:57:54;1.27;;;0.80;;
4794;SDS011;2411;47.060;15.064;2023-01-15T11:00:36;0.70;;;0.70;;
4794;SDS011;2411;47.060;15.064;2023-01-15T11:03:12;0.80;;;0.80;;
4794;SDS011;2411;47.060;15.064;2023-01-15T11:05:45;0.80;;;0.80;;
4794;SDS011;2411;47.060;15.064;2023-01-15T11:08:14;1.17;;;0.80;;
4794;SDS011;2411;47.060;15.064;2023-01-15T11:11:21;0.83;;;0.83;;
4794;SDS011;2411;47.060;15.064;2023-01-15T11:14:09;1.97;;;1.00;;
4794;SDS011;2411;47.060;15.064;2023-01-15T11:16:55;1.33;;;1.00;;
4794;SDS011;2411;47.060;15.064;2023-01-15T11:19:36;0.80;;;0.80;;
4794;SDS011;2411;47.060;15.064;2023-01-15T11:22:13;0.70;;;0.70;;
4794;SDS011;2411;47.060;15.064;2023-01-15T11:24:51;0.73;;;0.73;;
4794;SDS011;2411;47.060;15.064;2023-01-15T11:27:25;0.80;;;0.80;;
4794;SDS011;2411;47.060;15.064;2023-01-15T11:29:56;0.80;;;0.80;;
4794;SDS011;2411;47.060;15.064;2023-01-15T11:32:35;0.80;;;0.80;;
4794;SDS011;2411;47.060;15.064;2023-01-15T11:37:33;0.90;;;0.87;;
4794;SDS011;2411;47.060;15.064;2023-01-15T11:40:01;2.07;;;1.00;;
4794;SDS011;2411;47.060;15.064;2023-01-15T11:42:36;1.33;;;1.23;;
4794;SDS011;2411;47.060;15.064;2023-01-15T11:45:29;0.70;;;0.70;;
4794;SDS011;2411;47.060;15.064;2023-01-15T11:48:18;0.90;;;0.90;;
4794;SDS011;2411;47.060;15.064;2023-01-15T11:53:43;2.17;;;1.10;;
4794;SDS011;2411;47.060;15.064;2023-01-15T11:56:17;1.47;;;0.90;;
4794;SDS011;2411;47.060;15.064;2023-01-15T11:58:50;1.10;;;1.00;;
4794;SDS011;2411;47.060;15.064;2023-01-15T12:01:22;1.20;;;1.10;;
4794;SDS011;2411;47.060;15.064;2023-01-15T12:04:05;1.43;;;1.20;;
4794;SDS011;2411;47.060;15.064;2023-01-15T12:06:48;1.77;;;1.00;;
4794;SDS011;2411;47.060;15.064;2023-01-15T12:09:20;1.27;;;1.13;;
4794;SDS011;2411;47.060;15.064;2023-01-15T12:17:55;1.10;;;1.00;;
4794;SDS011;2411;47.060;15.064;2023-01-15T12:26:27;0.80;;;0.80;;
4794;SDS011;2411;47.060;15.064;2023-01-15T12:29:17;0.90;;;0.90;;
4794;SDS011;2411;47.060;15.064;2023-01-15T12:32:00;1.63;;;1.10;;
4794;SDS011;2411;47.060;15.064;2023-01-15T12:34:35;4.50;;;1.53;;
4794;SDS011;2411;47.060;15.064;2023-01-15T12:37:18;1.47;;;1.37;;
4794;SDS011;2411;47.060;15.064;2023-01-15T12:42:18;1.10;;;1.00;;
4794;SDS011;2411;47.060;15.064;2023-01-15T12:53:55;0.93;;;0.80;;
4794;SDS011;2411;47.060;15.064;2023-01-15T13:04:14;1.03;;;1.03;;
4794;SDS011;2411;47.060;15.064;2023-01-15T13:06:47;1.47;;;1.37;;
4794;SDS011;2411;47.060;15.064;2023-01-15T13:11:59;1.00;;;0.90;;
4794;SDS011;2411;47.060;15.064;2023-01-15T13:14:27;1.30;;;1.20;;
4794;SDS011;2411;47.060;15.064;2023-01-15T13:17:00;1.67;;;1.20;;
4794;SDS011;2411;47.060;15.064;2023-01-15T13:22:21;0.90;;;0.90;;
4794;SDS011;2411;47.060;15.064;2023-01-15T13:27:33;0.90;;;0.90;;
4794;SDS011;2411;47.060;15.064;2023-01-15T13:32:50;1.27;;;1.00;;
4794;SDS011;2411;47.060;15.064;2023-01-15T13:37:52;6.97;;;4.13;;
4794;SDS011;2411;47.060;15.064;2023-01-15T13:40:22;2.03;;;1.77;;
4794;SDS011;2411;47.060;15.064;2023-01-15T13:42:55;3.77;;;3.23;;
4794;SDS011;2411;47.060;15.064;2023-01-15T13:45:41;2.00;;;1.80;;
4794;SDS011;2411;47.060;15.064;2023-01-15T13:48:17;1.60;;;1.50;;
4794;SDS011;2411;47.060;15.064;2023-01-15T13:50:59;3.37;;;2.77;;
4794;SDS011;2411;47.060;15.064;2023-01-15T13:56:10;1.60;;;1.33;;
4794;SDS011;2411;47.060;15.064;2023-01-15T13:58:54;1.87;;;1.77;;
4794;SDS011;2411;47.060;15.064;2023-01-15T14:01:25;1.40;;;1.30;;
4794;SDS011;2411;47.060;15.064;2023-01-15T14:12:04;1.53;;;1.27;;
4794;SDS011;2411;47.060;15.064;2023-01-15T14:23:22;2.13;;;1.90;;
4794;SDS011;2411;47.060;15.064;2023-01-15T14:26:20;1.43;;;1.33;;
4794;SDS011;2411;47.060;15.064;2023-01-15T14:31:35;1.80;;;1.70;;
4794;SDS011;2411;47.060;15.064;2023-01-15T14:34:23;6.90;;;3.60;;
4794;SDS011;2411;47.060;15.064;2023-01-15T14:36:58;10.30;;;4.10;;
4794;SDS011;2411;47.060;15.064;2023-01-15T14:42:45;2.20;;;2.00;;
4794;SDS011;2411;47.060;15.064;2023-01-15T14:45:28;2.03;;;1.93;;
4794;SDS011;2411;47.060;15.064;2023-01-15T14:48:03;2.33;;;2.23;;
4794;SDS011;2411;47.060;15.064;2023-01-15T14:50:41;2.23;;;1.97;;
4794;SDS011;2411;47.060;15.064;2023-01-15T14:55:37;2.07;;;1.70;;
4794;SDS011;2411;47.060;15.064;2023-01-15T15:04:58;2.33;;;1.43;;
4794;SDS011;2411;47.060;15.064;2023-01-15T15:07:29;3.53;;;1.80;;
4794;SDS011;2411;47.060;15.064;2023-01-15T15:15:52;15.63;;;3.90;;
4794;SDS011;2411;47.060;15.064;2023-01-15T15:18:41;3.63;;;3.03;;
4794;SDS011;2411;47.060;15.064;2023-01-15T15:24:28;4.10;;;3.10;;
4794;SDS011;2411;47.060;15.064;2023-01-15T15:27:20;2.60;;;2.40;;
4794;SDS011;2411;47.060;15.064;2023-01-15T15:29:49;3.73;;;3.30;;
4794;SDS011;2411;47.060;15.064;2023-01-15T15:32:17;2.90;;;2.70;;
4794;SDS011;2411;47.060;15.064;2023-01-15T15:34:50;3.07;;;2.47;;
4794;SDS011;2411;47.060;15.064;2023-01-15T15:37:19;2.57;;;2.37;;
4794;SDS011;2411;47.060;15.064;2023-01-15T15:39:51;1.80;;;1.60;;
4794;SDS011;2411;47.060;15.064;2023-01-15T15:42:27;3.03;;;2.20;;
4794;SDS011;2411;47.060;15.064;2023-01-15T15:45:22;1.90;;;1.80;;
4794;SDS011;2411;47.060;15.064;2023-01-15T15:50:56;1.60;;;1.50;;
4794;SDS011;2411;47.060;15.064;2023-01-15T15:53:24;1.33;;;1.20;;
4794;SDS011;2411;47.060;15.064;2023-01-15T15:55:51;1.60;;;1.50;;
4794;SDS011;2411;47.060;15.064;2023-01-15T15:58:34;4.00;;;1.80;;
4794;SDS011;2411;47.060;15.064;2023-01-15T16:01:04;6.00;;;1.93;;
4794;SDS011;2411;47.060;15.064;2023-01-15T16:03:43;4.10;;;2.93;;
4794;SDS011;2411;47.060;15.064;2023-01-15T16:06:16;10.13;;;3.40;;
4794;SDS011;2411;47.060;15.064;2023-01-15T16:08:56;3.63;;;3.33;;
4794;SDS011;2411;47.060;15.064;2023-01-15T16:11:30;4.07;;;3.30;;
4794;SDS011;2411;47.060;15.064;2023-01-15T16:13:59;3.07;;;2.80;;
4794;SDS011;2411;47.060;15.064;2023-01-15T16:16:31;2.97;;;2.50;;
4794;SDS011;2411;47.060;15.064;2023-01-15T16:18:59;4.00;;;3.07;;
4794;SDS011;2411;47.060;15.064;2023-01-15T16:21:32;4.17;;;3.10;;
4794;SDS011;2411;47.060;15.064;2023-01-15T16:24:05;7.80;;;3.57;;
4794;SDS011;2411;47.060;15.064;2023-01-15T16:26:36;8.80;;;4.57;;
4794;SDS011;2411;47.060;15.064;2023-01-15T16:29:16;6.00;;;4.67;;
4794;SDS011;2411;47.060;15.064;2023-01-15T16:32:08;6.17;;;4.87;;
4794;SDS011;2411;47.060;15.064;2023-01-15T16:34:38;6.27;;;4.47;;
4794;SDS011;2411;47.060;15.064;2023-01-15T16:37:15;6.03;;;4.20;;
4794;SDS011;2411;47.060;15.064;2023-01-15T16:39:52;7.73;;;4.47;;
4794;SDS011;2411;47.060;15.064;2023-01-15T16:42:28;7.40;;;4.07;;
4794;SDS011;2411;47.060;15.064;2023-01-15T16:45:19;7.57;;;5.30;;
4794;SDS011;2411;47.060;15.064;2023-01-15T16:48:08;13.30;;;5.93;;
4794;SDS011;2411;47.060;15.064;2023-01-15T16:50:40;8.90;;;5.10;;
4794;SDS011;2411;47.060;15.064;2023-01-15T16:55:53;4.87;;;3.97;;
4794;SDS011;2411;47.060;15.064;2023-01-15T16:58:38;4.03;;;3.37;;
4794;SDS011;2411;47.060;15.064;2023-01-15T17:01:22;11.33;;;3.27;;
4794;SDS011;2411;47.060;15.064;2023-01-15T17:03:56;6.30;;;3.17;;
4794;SDS011;2411;47.060;15.064;2023-01-15T17:06:25;3.50;;;3.20;;
4794;SDS011;2411;47.060;15.064;2023-01-15T17:08:53;5.90;;;2.93;;
4794;SDS011;2411;47.060;15.064;2023-01-15T17:11:28;4.67;;;3.60;;
4794;SDS011;2411;47.060;15.064;2023-01-15T17:14:09;4.47;;;3.73;;
4794;SDS011;2411;47.060;15.064;2023-01-15T17:16:37;3.90;;;2.60;;
4794;SDS011;2411;47.060;15.064;2023-01-15T17:19:05;2.20;;;0.90;;
4794;SDS011;2411;47.060;15.064;2023-01-15T17:21:33;0.90;;;0.90;;
4794;SDS011;2411;47.060;15.064;2023-01-15T17:24:06;1.00;;;0.93;;
4794;SDS011;2411;47.060;15.064;2023-01-15T17:26:37;0.87;;;0.87;;
4794;SDS011;2411;47.060;15.064;2023-01-15T17:29:04;2.40;;;1.00;;
4794;SDS011;2411;47.060;15.064;2023-01-15T17:31:32;0.87;;;0.87;;
4794;SDS011;2411;47.060;15.064;2023-01-15T17:34:00;0.87;;;0.60;;
4794;SDS011;2411;47.060;15.064;2023-01-15T17:36:29;1.00;;;1.00;;
4794;SDS011;2411;47.060;15.064;2023-01-15T17:38:56;1.37;;;0.60;;
4794;SDS011;2411;47.060;15.064;2023-01-15T17:41:25;0.60;;;0.60;;
4794;SDS011;2411;47.060;15.064;2023-01-15T17:43:52;0.67;;;0.67;;
4794;SDS011;2411;47.060;15.064;2023-01-15T17:46:19;0.60;;;0.60;;
4794;SDS011;2411;47.060;15.064;2023-01-15T17:48:47;1.00;;;0.90;;
4794;SDS011;2411;47.060;15.064;2023-01-15T17:51:14;0.70;;;0.70;;
4794;SDS011;2411;47.060;15.064;2023-01-15T17:53:42;0.90;;;0.90;;
4794;SDS011;2411;47.060;15.064;2023-01-15T17:56:09;0.80;;;0.80;;
4794;SDS011;2411;47.060;15.064;2023-01-15T17:58:55;1.40;;;0.70;;
4794;SDS011;2411;47.060;15.064;2023-01-15T18:01:42;1.10;;;1.00;;
4794;SDS011;2411;47.060;15.064;2023-01-15T18:04:34;0.80;;;0.70;;